ASN logo
Last updated: 30 July 2021
Statuts:
Date:vendredi 7 août 2020
Heure:19:40
Type/Sous-type:Silhouette image of generic B738 model; specific model in this crash may look slightly different
Boeing 737-8HG (WL)
Compagnie:Air India Express
Immatriculation: VT-AXH
Numéro de série: 36323/2108
Année de Fabrication: 2006-11-15 (13 years 9 months)
Moteurs: 2 CFMI CFM56-7B27
Equipage:victimes: 2 / à bord: 6
Passagers:victimes: 19 / à bord: 184
Total:victimes: 21 / à bord: 190
Dégats de l'appareil: Détruit
Conséquences: Written off (damaged beyond repair)
Lieu de l'accident:Kozhikode-Calicut Airport (CCJ) (   Inde)
Phase de vol: A l'atterrissage (LDG)
Nature:Transport de Passagers Intern.
Aéroport de départ:Dubai Airport (DXB/OMDB), Emirats Arabes Unis
Aéroport de destination:Kozhikode-Calicut Airport (CCJ/VOCL), Inde
Numéro de vol:IX1344
Détails:
Air India Express flight 1344, a Boeing 737-800, suffered a runway excursion on landing at Kozhikode-Calicut Airport, India and broke in two. Both pilots and nineteen passengers died in the accident.
The flight departed Dubai Airport, United Arab Emirates at 10:15 UTC on a passenger service to Kozhikode-Calicut Airport.
The aircraft arrived from the west, overflying the airport at 13:42 UTC. It then performed a teardrop approach to runway 28. This approach was discontinued and the aircraft subsequently flew a teardrop approach to runway 10. According to a DGCA official the aircraft touched down about 900 meters down the 2850 m long runway at 14:10 UTC (19:40 local time). The aircraft failed to stop on the remaining runway and overran. It went down a 34 m dropoff and broke in two.

Weather
Weather at the time of the approaches and landing was poor. At 14:00 UTC scattered clouds were reported at 300 and 1200 feet with a few Cumulonimbus clouds at 2500 feet and overcast clouds at 8000 feet. The wind was from 260 degrees at 12 knots. Visibility was 2000 m in rain.

Airport and runway
The airport has a single runway (10/28) which is located on a flattened hill. The Landing Distance Available (LDA) for both directions is 2850 m. The runway strip extended to 60 m beyond the threshold. After the paved surface, there is a runway end
safety area (RESA), measuring 93 m x 90 m. The ICAO required RESA length is 90 m, whereas the recommended length is 240 m.
Past the RESA there is a 35 m drop off.

Sources:
» ndtv.com
» indiatvnews.com
» news18.com

METAR Weather report:
13:00 UTC / 18:30 local time:
VOCL 071300Z 20006KT 1500 -TSRA SCT003 SCT012 FEW025CB OVC080 24/24 Q1007 NOSIG

13:30 UTC / 19:00 local time:
VOCL 071330Z 27013KT 1500 -TSRA SCT003 SCT012 FEW025CB OVC080 24/23 Q1008 NOSIG

14:00 UTC / 19:30 local time:
VOCL 071400Z 26012KT 2000 -RA SCT003 SCT012 FEW025CB OVC080 24/23 Q1008 TEMPO 1500 -RA BR

14:30 UTC / 20:00 local time:
VOCL 071430Z 24011KT 2000 -RA SCT003 SCT012 FEW025CB OVC080 24/23 Q1009 TEMPO 1500 -RA BR


Photos

photo of Boeing-737-8HG-VT-AXH
photo of Boeing-737-8HG-VT-AXH
photo of Boeing-737-8HG-VT-AXH
accident date: 07-08-2020
type: Boeing 737-8HG (WL)
registration: VT-AXH
 

Video, social media

Plan
Ce plan montre l'aéroport de départ ainsi que la supposée destination du vol. La ligne fixe reliant les deux aéroports n'est pas le plan de vol exact.
La distance entre Dubai Airport et Kozhikode-Calicut Airport est de 2659 km (1662 miles).
Accident location: Exact; deduced from official accident report.

Les informations ci-dessus ne représentent pas l'opinion de la 'Flight Safety Foundation' ou de 'Aviation Safety Network' sur les causes de l'accident. Ces informations prélimimaires sont basées sur les faits tel qu'ils sont connus à ce jour.
languages: languages

Share

Boeing 737-800

  • 4749+ built
  • 21ème loss
  • 10ème accident fatal
  • le accident 7ème le plus grave (à ce moment là)
  • le accident 7ème le plus grave (en ce moment)
» safety profile

 Inde
  • le accident 38ème le plus grave (à ce moment là)
  • le accident 38ème le plus grave (en ce moment)
» safety profile